sensor_id;sensor_type;location;lat;lon;timestamp;temperature;humidity
76613;DHT22;65507;48.454;-2.058;2023-07-08T00:00:09;23.60;51.30
76613;DHT22;65507;48.454;-2.058;2023-07-08T00:02:35;23.50;51.40
76613;DHT22;65507;48.454;-2.058;2023-07-08T00:05:00;23.40;51.60
76613;DHT22;65507;48.454;-2.058;2023-07-08T00:07:26;23.30;51.70
76613;DHT22;65507;48.454;-2.058;2023-07-08T00:09:51;23.20;52.00
76613;DHT22;65507;48.454;-2.058;2023-07-08T00:12:17;23.10;52.30
76613;DHT22;65507;48.454;-2.058;2023-07-08T00:14:42;22.90;52.40
76613;DHT22;65507;48.454;-2.058;2023-07-08T00:17:11;22.90;53.50
76613;DHT22;65507;48.454;-2.058;2023-07-08T00:19:38;22.80;52.60
76613;DHT22;65507;48.454;-2.058;2023-07-08T00:22:11;22.70;52.50
76613;DHT22;65507;48.454;-2.058;2023-07-08T00:24:37;22.70;52.50
76613;DHT22;65507;48.454;-2.058;2023-07-08T00:27:02;22.70;52.70
76613;DHT22;65507;48.454;-2.058;2023-07-08T00:29:28;22.60;52.80
76613;DHT22;65507;48.454;-2.058;2023-07-08T00:31:54;22.50;52.80
76613;DHT22;65507;48.454;-2.058;2023-07-08T00:34:19;22.50;52.80
76613;DHT22;65507;48.454;-2.058;2023-07-08T00:36:45;22.50;52.80
76613;DHT22;65507;48.454;-2.058;2023-07-08T00:39:12;22.40;52.80
76613;DHT22;65507;48.454;-2.058;2023-07-08T00:41:38;22.40;52.70
76613;DHT22;65507;48.454;-2.058;2023-07-08T00:44:12;22.40;52.70
76613;DHT22;65507;48.454;-2.058;2023-07-08T00:49:52;22.50;52.50
76613;DHT22;65507;48.454;-2.058;2023-07-08T00:52:25;22.50;52.50
76613;DHT22;65507;48.454;-2.058;2023-07-08T00:54:55;22.60;52.50
76613;DHT22;65507;48.454;-2.058;2023-07-08T00:57:22;22.50;52.40
76613;DHT22;65507;48.454;-2.058;2023-07-08T01:02:45;22.50;52.50
76613;DHT22;65507;48.454;-2.058;2023-07-08T01:05:14;22.50;52.50
76613;DHT22;65507;48.454;-2.058;2023-07-08T01:07:41;22.40;52.50
76613;DHT22;65507;48.454;-2.058;2023-07-08T01:10:08;22.40;52.50
76613;DHT22;65507;48.454;-2.058;2023-07-08T01:12:40;22.40;52.60
76613;DHT22;65507;48.454;-2.058;2023-07-08T01:15:08;22.40;52.60
76613;DHT22;65507;48.454;-2.058;2023-07-08T01:17:35;22.40;52.60
76613;DHT22;65507;48.454;-2.058;2023-07-08T01:20:01;22.30;52.60
76613;DHT22;65507;48.454;-2.058;2023-07-08T01:22:31;22.30;52.70
76613;DHT22;65507;48.454;-2.058;2023-07-08T01:24:57;22.30;52.70
76613;DHT22;65507;48.454;-2.058;2023-07-08T01:27:28;22.30;52.80
76613;DHT22;65507;48.454;-2.058;2023-07-08T01:29:54;22.20;52.90
76613;DHT22;65507;48.454;-2.058;2023-07-08T01:32:20;22.20;53.10
76613;DHT22;65507;48.454;-2.058;2023-07-08T01:34:45;22.20;53.10
76613;DHT22;65507;48.454;-2.058;2023-07-08T01:37:38;22.10;53.00
76613;DHT22;65507;48.454;-2.058;2023-07-08T01:42:44;22.10;53.00
76613;DHT22;65507;48.454;-2.058;2023-07-08T01:45:13;22.10;53.10
76613;DHT22;65507;48.454;-2.058;2023-07-08T01:47:40;22.10;53.10
76613;DHT22;65507;48.454;-2.058;2023-07-08T01:50:06;22.10;53.20
76613;DHT22;65507;48.454;-2.058;2023-07-08T01:52:32;22.00;53.10
76613;DHT22;65507;48.454;-2.058;2023-07-08T01:54:57;22.00;53.20
76613;DHT22;65507;48.454;-2.058;2023-07-08T01:57:23;22.00;53.30
76613;DHT22;65507;48.454;-2.058;2023-07-08T01:59:48;21.90;53.40
76613;DHT22;65507;48.454;-2.058;2023-07-08T02:02:15;21.90;53.70
76613;DHT22;65507;48.454;-2.058;2023-07-08T02:04:41;21.80;53.90
76613;DHT22;65507;48.454;-2.058;2023-07-08T02:07:06;21.80;53.90
76613;DHT22;65507;48.454;-2.058;2023-07-08T02:09:32;21.80;53.80
76613;DHT22;65507;48.454;-2.058;2023-07-08T02:11:57;21.80;53.80
76613;DHT22;65507;48.454;-2.058;2023-07-08T02:14:23;21.80;53.80
76613;DHT22;65507;48.454;-2.058;2023-07-08T02:16:48;21.80;53.90
76613;DHT22;65507;48.454;-2.058;2023-07-08T02:19:14;21.80;53.60
76613;DHT22;65507;48.454;-2.058;2023-07-08T02:21:40;21.80;53.60
76613;DHT22;65507;48.454;-2.058;2023-07-08T02:24:05;21.80;53.70
76613;DHT22;65507;48.454;-2.058;2023-07-08T02:26:31;21.80;53.60
76613;DHT22;65507;48.454;-2.058;2023-07-08T02:28:57;21.80;53.70
76613;DHT22;65507;48.454;-2.058;2023-07-08T02:31:23;21.80;53.60
76613;DHT22;65507;48.454;-2.058;2023-07-08T02:33:50;21.80;53.60
76613;DHT22;65507;48.454;-2.058;2023-07-08T02:36:16;21.80;53.60
76613;DHT22;65507;48.454;-2.058;2023-07-08T02:38:41;21.80;53.70
76613;DHT22;65507;48.454;-2.058;2023-07-08T02:41:07;21.80;53.60
76613;DHT22;65507;48.454;-2.058;2023-07-08T02:43:32;21.80;53.60
76613;DHT22;65507;48.454;-2.058;2023-07-08T02:45:58;21.80;53.70
76613;DHT22;65507;48.454;-2.058;2023-07-08T02:48:23;21.80;53.70
76613;DHT22;65507;48.454;-2.058;2023-07-08T02:50:49;21.80;53.70
76613;DHT22;65507;48.454;-2.058;2023-07-08T02:53:14;21.80;53.90
76613;DHT22;65507;48.454;-2.058;2023-07-08T02:55:40;21.70;53.90
76613;DHT22;65507;48.454;-2.058;2023-07-08T02:58:08;21.70;53.90
76613;DHT22;65507;48.454;-2.058;2023-07-08T03:00:34;21.70;54.00
76613;DHT22;65507;48.454;-2.058;2023-07-08T03:03:03;21.70;54.10
76613;DHT22;65507;48.454;-2.058;2023-07-08T03:05:29;21.60;54.10
76613;DHT22;65507;48.454;-2.058;2023-07-08T03:07:56;21.60;54.30
76613;DHT22;65507;48.454;-2.058;2023-07-08T03:10:21;21.60;54.30
76613;DHT22;65507;48.454;-2.058;2023-07-08T03:12:47;21.50;54.30
76613;DHT22;65507;48.454;-2.058;2023-07-08T03:15:12;21.60;54.30
76613;DHT22;65507;48.454;-2.058;2023-07-08T03:17:38;21.60;54.30
76613;DHT22;65507;48.454;-2.058;2023-07-08T03:20:03;21.60;54.20
76613;DHT22;65507;48.454;-2.058;2023-07-08T03:22:31;21.60;54.20
76613;DHT22;65507;48.454;-2.058;2023-07-08T03:24:58;21.60;54.20
76613;DHT22;65507;48.454;-2.058;2023-07-08T03:27:24;21.60;54.30
76613;DHT22;65507;48.454;-2.058;2023-07-08T03:29:49;21.60;54.30
76613;DHT22;65507;48.454;-2.058;2023-07-08T03:32:15;21.60;54.20
76613;DHT22;65507;48.454;-2.058;2023-07-08T03:34:41;21.60;54.20
76613;DHT22;65507;48.454;-2.058;2023-07-08T03:37:08;21.60;54.20
76613;DHT22;65507;48.454;-2.058;2023-07-08T03:39:34;21.60;54.20
76613;DHT22;65507;48.454;-2.058;2023-07-08T03:41:59;20.90;53.90
76613;DHT22;65507;48.454;-2.058;2023-07-08T03:44:25;21.60;54.20
76613;DHT22;65507;48.454;-2.058;2023-07-08T03:46:51;21.60;54.20
76613;DHT22;65507;48.454;-2.058;2023-07-08T03:49:17;21.60;54.20
76613;DHT22;65507;48.454;-2.058;2023-07-08T03:51:47;21.60;54.20
76613;DHT22;65507;48.454;-2.058;2023-07-08T03:54:13;21.60;54.10
76613;DHT22;65507;48.454;-2.058;2023-07-08T03:56:39;21.70;54.10
76613;DHT22;65507;48.454;-2.058;2023-07-08T03:59:05;21.70;54.10
76613;DHT22;65507;48.454;-2.058;2023-07-08T04:01:31;21.70;54.00
76613;DHT22;65507;48.454;-2.058;2023-07-08T04:03:57;21.70;54.10
76613;DHT22;65507;48.454;-2.058;2023-07-08T04:06:23;21.70;54.00
76613;DHT22;65507;48.454;-2.058;2023-07-08T04:08:49;21.70;54.20
76613;DHT22;65507;48.454;-2.058;2023-07-08T04:11:18;21.70;54.10
76613;DHT22;65507;48.454;-2.058;2023-07-08T04:13:43;21.70;54.20
76613;DHT22;65507;48.454;-2.058;2023-07-08T04:16:16;21.70;54.40
76613;DHT22;65507;48.454;-2.058;2023-07-08T04:18:42;21.70;54.40
76613;DHT22;65507;48.454;-2.058;2023-07-08T04:21:08;21.60;54.50
76613;DHT22;65507;48.454;-2.058;2023-07-08T04:23:33;21.60;54.50
76613;DHT22;65507;48.454;-2.058;2023-07-08T04:25:59;21.60;54.60
76613;DHT22;65507;48.454;-2.058;2023-07-08T04:28:25;21.50;54.70
76613;DHT22;65507;48.454;-2.058;2023-07-08T04:30:50;21.50;54.80
76613;DHT22;65507;48.454;-2.058;2023-07-08T04:33:16;21.40;54.80
76613;DHT22;65507;48.454;-2.058;2023-07-08T04:35:42;21.40;55.90
76613;DHT22;65507;48.454;-2.058;2023-07-08T04:38:16;21.50;54.80
76613;DHT22;65507;48.454;-2.058;2023-07-08T04:40:41;21.40;54.70
76613;DHT22;65507;48.454;-2.058;2023-07-08T04:43:07;21.40;54.90
76613;DHT22;65507;48.454;-2.058;2023-07-08T04:45:33;21.40;54.90
76613;DHT22;65507;48.454;-2.058;2023-07-08T04:47:59;21.40;54.90
76613;DHT22;65507;48.454;-2.058;2023-07-08T04:50:24;21.40;55.00
76613;DHT22;65507;48.454;-2.058;2023-07-08T04:52:50;21.40;55.00
76613;DHT22;65507;48.454;-2.058;2023-07-08T04:55:16;21.40;55.10
76613;DHT22;65507;48.454;-2.058;2023-07-08T04:57:41;21.40;55.00
76613;DHT22;65507;48.454;-2.058;2023-07-08T05:00:07;21.40;55.10
76613;DHT22;65507;48.454;-2.058;2023-07-08T05:02:34;21.40;54.90
76613;DHT22;65507;48.454;-2.058;2023-07-08T05:05:00;21.40;55.00
76613;DHT22;65507;48.454;-2.058;2023-07-08T05:07:26;21.40;55.00
76613;DHT22;65507;48.454;-2.058;2023-07-08T05:09:51;21.40;55.10
76613;DHT22;65507;48.454;-2.058;2023-07-08T05:12:17;21.40;55.50
76613;DHT22;65507;48.454;-2.058;2023-07-08T05:14:45;21.40;55.20
76613;DHT22;65507;48.454;-2.058;2023-07-08T05:17:11;22.40;56.70
76613;DHT22;65507;48.454;-2.058;2023-07-08T05:19:37;21.30;55.20
76613;DHT22;65507;48.454;-2.058;2023-07-08T05:22:03;21.30;55.20
76613;DHT22;65507;48.454;-2.058;2023-07-08T05:24:28;21.30;55.30
76613;DHT22;65507;48.454;-2.058;2023-07-08T05:26:54;21.30;55.30
76613;DHT22;65507;48.454;-2.058;2023-07-08T05:29:19;21.30;55.30
76613;DHT22;65507;48.454;-2.058;2023-07-08T05:31:45;21.30;55.50
76613;DHT22;65507;48.454;-2.058;2023-07-08T05:34:10;21.30;55.50
76613;DHT22;65507;48.454;-2.058;2023-07-08T05:36:36;21.20;55.50
76613;DHT22;65507;48.454;-2.058;2023-07-08T05:39:01;21.20;55.60
76613;DHT22;65507;48.454;-2.058;2023-07-08T05:41:27;21.20;55.70
76613;DHT22;65507;48.454;-2.058;2023-07-08T05:43:52;21.10;55.60
76613;DHT22;65507;48.454;-2.058;2023-07-08T05:46:18;21.10;55.60
76613;DHT22;65507;48.454;-2.058;2023-07-08T05:48:44;21.10;55.80
76613;DHT22;65507;48.454;-2.058;2023-07-08T05:51:09;21.10;55.70
76613;DHT22;65507;48.454;-2.058;2023-07-08T05:53:35;21.10;55.80
76613;DHT22;65507;48.454;-2.058;2023-07-08T05:56:01;21.10;55.70
76613;DHT22;65507;48.454;-2.058;2023-07-08T05:58:27;21.10;55.70
76613;DHT22;65507;48.454;-2.058;2023-07-08T06:00:56;21.10;55.90
76613;DHT22;65507;48.454;-2.058;2023-07-08T06:03:22;21.10;55.70
76613;DHT22;65507;48.454;-2.058;2023-07-08T06:05:47;21.10;55.90
76613;DHT22;65507;48.454;-2.058;2023-07-08T06:08:14;21.10;55.80
76613;DHT22;65507;48.454;-2.058;2023-07-08T06:10:44;21.10;55.80
76613;DHT22;65507;48.454;-2.058;2023-07-08T06:13:09;21.10;55.80
76613;DHT22;65507;48.454;-2.058;2023-07-08T06:15:35;21.10;55.90
76613;DHT22;65507;48.454;-2.058;2023-07-08T06:18:00;21.10;56.00
76613;DHT22;65507;48.454;-2.058;2023-07-08T06:20:28;21.00;56.00
76613;DHT22;65507;48.454;-2.058;2023-07-08T06:22:53;21.00;56.10
76613;DHT22;65507;48.454;-2.058;2023-07-08T06:25:19;21.00;56.00
76613;DHT22;65507;48.454;-2.058;2023-07-08T06:27:44;21.10;55.90
76613;DHT22;65507;48.454;-2.058;2023-07-08T06:30:10;22.50;56.70
76613;DHT22;65507;48.454;-2.058;2023-07-08T06:32:36;21.10;55.80
76613;DHT22;65507;48.454;-2.058;2023-07-08T06:35:01;21.10;55.80
76613;DHT22;65507;48.454;-2.058;2023-07-08T06:37:27;21.10;55.80
76613;DHT22;65507;48.454;-2.058;2023-07-08T06:39:52;21.10;56.80
76613;DHT22;65507;48.454;-2.058;2023-07-08T06:42:18;21.10;55.90
76613;DHT22;65507;48.454;-2.058;2023-07-08T06:44:43;21.20;55.90
76613;DHT22;65507;48.454;-2.058;2023-07-08T06:47:18;21.10;56.00
76613;DHT22;65507;48.454;-2.058;2023-07-08T06:49:45;21.10;56.90
76613;DHT22;65507;48.454;-2.058;2023-07-08T06:52:11;21.10;55.90
76613;DHT22;65507;48.454;-2.058;2023-07-08T06:54:36;21.20;56.10
76613;DHT22;65507;48.454;-2.058;2023-07-08T06:57:02;21.20;56.10
76613;DHT22;65507;48.454;-2.058;2023-07-08T06:59:28;21.20;56.20
76613;DHT22;65507;48.454;-2.058;2023-07-08T07:01:54;21.30;56.10
76613;DHT22;65507;48.454;-2.058;2023-07-08T07:04:19;21.30;55.90
76613;DHT22;65507;48.454;-2.058;2023-07-08T07:06:45;21.40;55.70
76613;DHT22;65507;48.454;-2.058;2023-07-08T07:09:10;21.50;55.70
76613;DHT22;65507;48.454;-2.058;2023-07-08T07:11:36;21.60;55.60
76613;DHT22;65507;48.454;-2.058;2023-07-08T07:14:01;21.60;55.50
76613;DHT22;65507;48.454;-2.058;2023-07-08T07:16:27;21.60;55.30
76613;DHT22;65507;48.454;-2.058;2023-07-08T07:18:53;21.70;55.50
76613;DHT22;65507;48.454;-2.058;2023-07-08T07:21:18;21.70;55.40
76613;DHT22;65507;48.454;-2.058;2023-07-08T07:23:44;21.80;55.40
76613;DHT22;65507;48.454;-2.058;2023-07-08T07:26:10;21.80;55.40
76613;DHT22;65507;48.454;-2.058;2023-07-08T07:28:35;21.90;55.50
76613;DHT22;65507;48.454;-2.058;2023-07-08T07:31:01;22.00;55.30
76613;DHT22;65507;48.454;-2.058;2023-07-08T07:33:26;22.00;55.20
76613;DHT22;65507;48.454;-2.058;2023-07-08T07:35:52;22.10;55.30
76613;DHT22;65507;48.454;-2.058;2023-07-08T07:38:17;22.10;55.30
76613;DHT22;65507;48.454;-2.058;2023-07-08T07:40:43;22.10;55.40
76613;DHT22;65507;48.454;-2.058;2023-07-08T07:43:09;22.20;55.30
76613;DHT22;65507;48.454;-2.058;2023-07-08T07:45:34;20.20;54.20
76613;DHT22;65507;48.454;-2.058;2023-07-08T07:48:00;22.20;55.20
76613;DHT22;65507;48.454;-2.058;2023-07-08T07:50:26;22.30;55.20
76613;DHT22;65507;48.454;-2.058;2023-07-08T07:52:51;22.30;55.20
76613;DHT22;65507;48.454;-2.058;2023-07-08T07:55:17;22.30;55.30
76613;DHT22;65507;48.454;-2.058;2023-07-08T07:57:43;22.20;55.50
76613;DHT22;65507;48.454;-2.058;2023-07-08T08:00:11;22.20;55.60
76613;DHT22;65507;48.454;-2.058;2023-07-08T08:02:36;22.20;55.70
76613;DHT22;65507;48.454;-2.058;2023-07-08T08:05:02;22.20;55.80
76613;DHT22;65507;48.454;-2.058;2023-07-08T08:07:28;22.20;55.90
76613;DHT22;65507;48.454;-2.058;2023-07-08T08:09:53;22.20;56.10
76613;DHT22;65507;48.454;-2.058;2023-07-08T08:12:19;22.30;55.70
76613;DHT22;65507;48.454;-2.058;2023-07-08T08:14:44;22.60;55.50
76613;DHT22;65507;48.454;-2.058;2023-07-08T08:17:10;22.60;54.90
76613;DHT22;65507;48.454;-2.058;2023-07-08T08:19:35;23.00;54.70
76613;DHT22;65507;48.454;-2.058;2023-07-08T08:22:01;23.10;54.50
76613;DHT22;65507;48.454;-2.058;2023-07-08T08:24:27;23.10;54.50
76613;DHT22;65507;48.454;-2.058;2023-07-08T08:26:52;23.20;54.40
76613;DHT22;65507;48.454;-2.058;2023-07-08T08:29:18;23.50;54.30
76613;DHT22;65507;48.454;-2.058;2023-07-08T08:31:43;23.70;54.10
76613;DHT22;65507;48.454;-2.058;2023-07-08T08:34:09;23.80;53.90
76613;DHT22;65507;48.454;-2.058;2023-07-08T08:36:34;24.00;53.70
76613;DHT22;65507;48.454;-2.058;2023-07-08T08:39:00;24.10;53.50
76613;DHT22;65507;48.454;-2.058;2023-07-08T08:41:33;24.20;53.30
76613;DHT22;65507;48.454;-2.058;2023-07-08T08:43:58;24.40;53.30
76613;DHT22;65507;48.454;-2.058;2023-07-08T08:51:19;24.70;53.00
76613;DHT22;65507;48.454;-2.058;2023-07-08T08:53:44;24.90;52.80
76613;DHT22;65507;48.454;-2.058;2023-07-08T09:01:28;25.40;52.40
76613;DHT22;65507;48.454;-2.058;2023-07-08T09:04:04;25.60;52.40
76613;DHT22;65507;48.454;-2.058;2023-07-08T09:06:31;25.10;51.80
76613;DHT22;65507;48.454;-2.058;2023-07-08T09:09:02;25.80;52.20
76613;DHT22;65507;48.454;-2.058;2023-07-08T09:13:57;26.00;52.10
76613;DHT22;65507;48.454;-2.058;2023-07-08T09:16:39;26.10;52.10
76613;DHT22;65507;48.454;-2.058;2023-07-08T09:19:15;26.20;52.20
76613;DHT22;65507;48.454;-2.058;2023-07-08T09:27:06;26.50;52.10
76613;DHT22;65507;48.454;-2.058;2023-07-08T09:29:31;26.60;52.00
76613;DHT22;65507;48.454;-2.058;2023-07-08T09:31:57;26.60;52.00
76613;DHT22;65507;48.454;-2.058;2023-07-08T09:34:23;26.60;52.10
76613;DHT22;65507;48.454;-2.058;2023-07-08T09:37:00;26.70;52.20
76613;DHT22;65507;48.454;-2.058;2023-07-08T09:39:26;26.80;52.20
76613;DHT22;65507;48.454;-2.058;2023-07-08T09:41:52;26.90;51.90
76613;DHT22;65507;48.454;-2.058;2023-07-08T09:44:20;27.10;51.90
76613;DHT22;65507;48.454;-2.058;2023-07-08T09:46:55;27.20;51.70
76613;DHT22;65507;48.454;-2.058;2023-07-08T09:49:23;27.40;51.70
76613;DHT22;65507;48.454;-2.058;2023-07-08T09:51:49;27.40;51.70
76613;DHT22;65507;48.454;-2.058;2023-07-08T09:54:16;27.50;51.60
76613;DHT22;65507;48.454;-2.058;2023-07-08T09:56:43;27.70;51.50
76613;DHT22;65507;48.454;-2.058;2023-07-08T09:59:11;27.70;51.60
76613;DHT22;65507;48.454;-2.058;2023-07-08T10:01:37;27.70;51.70
76613;DHT22;65507;48.454;-2.058;2023-07-08T10:04:03;27.70;51.90
76613;DHT22;65507;48.454;-2.058;2023-07-08T10:06:30;27.70;52.00
76613;DHT22;65507;48.454;-2.058;2023-07-08T10:09:05;27.80;51.80
76613;DHT22;65507;48.454;-2.058;2023-07-08T10:11:36;27.90;51.60
76613;DHT22;65507;48.454;-2.058;2023-07-08T10:16:47;28.20;51.30
76613;DHT22;65507;48.454;-2.058;2023-07-08T10:19:13;28.30;51.10
76613;DHT22;65507;48.454;-2.058;2023-07-08T10:24:28;28.60;51.00
76613;DHT22;65507;48.454;-2.058;2023-07-08T10:27:00;28.60;51.00
76613;DHT22;65507;48.454;-2.058;2023-07-08T10:29:32;28.70;50.90
76613;DHT22;65507;48.454;-2.058;2023-07-08T10:32:02;28.90;50.90
76613;DHT22;65507;48.454;-2.058;2023-07-08T10:37:15;29.10;50.60
76613;DHT22;65507;48.454;-2.058;2023-07-08T10:39:57;29.10;50.70
76613;DHT22;65507;48.454;-2.058;2023-07-08T10:42:37;29.10;50.60
76613;DHT22;65507;48.454;-2.058;2023-07-08T10:45:10;29.20;50.60
76613;DHT22;65507;48.454;-2.058;2023-07-08T10:47:42;29.40;50.60
76613;DHT22;65507;48.454;-2.058;2023-07-08T10:53:30;29.50;50.50
76613;DHT22;65507;48.454;-2.058;2023-07-08T10:55:49;29.50;50.60
76613;DHT22;65507;48.454;-2.058;2023-07-08T11:03:35;29.40;51.00
76613;DHT22;65507;48.454;-2.058;2023-07-08T11:06:08;29.30;51.10
76613;DHT22;65507;48.454;-2.058;2023-07-08T11:08:38;29.40;51.20
76613;DHT22;65507;48.454;-2.058;2023-07-08T11:11:09;29.50;51.10
76613;DHT22;65507;48.454;-2.058;2023-07-08T11:13:38;29.50;51.00
76613;DHT22;65507;48.454;-2.058;2023-07-08T11:16:10;29.60;50.90
76613;DHT22;65507;48.454;-2.058;2023-07-08T11:21:07;29.60;51.10
76613;DHT22;65507;48.454;-2.058;2023-07-08T11:23:40;29.60;51.10
76613;DHT22;65507;48.454;-2.058;2023-07-08T11:28:33;29.50;51.40
76613;DHT22;65507;48.454;-2.058;2023-07-08T11:30:58;29.50;51.60
76613;DHT22;65507;48.454;-2.058;2023-07-08T11:33:26;29.40;51.50
76613;DHT22;65507;48.454;-2.058;2023-07-08T11:35:55;29.40;51.60
76613;DHT22;65507;48.454;-2.058;2023-07-08T11:38:24;29.30;51.60
76613;DHT22;65507;48.454;-2.058;2023-07-08T11:40:53;29.30;51.60
76613;DHT22;65507;48.454;-2.058;2023-07-08T11:43:20;29.30;51.70
76613;DHT22;65507;48.454;-2.058;2023-07-08T11:45:46;29.20;51.80
76613;DHT22;65507;48.454;-2.058;2023-07-08T11:48:18;29.20;51.80
76613;DHT22;65507;48.454;-2.058;2023-07-08T11:50:45;29.20;51.70
76613;DHT22;65507;48.454;-2.058;2023-07-08T11:53:13;29.30;51.60
76613;DHT22;65507;48.454;-2.058;2023-07-08T11:55:55;29.40;51.50
76613;DHT22;65507;48.454;-2.058;2023-07-08T11:58:22;29.60;51.20
76613;DHT22;65507;48.454;-2.058;2023-07-08T12:00:58;29.70;51.00
76613;DHT22;65507;48.454;-2.058;2023-07-08T12:03:29;29.80;50.90
76613;DHT22;65507;48.454;-2.058;2023-07-08T12:05:56;29.80;50.80
76613;DHT22;65507;48.454;-2.058;2023-07-08T12:08:22;29.80;50.90
76613;DHT22;65507;48.454;-2.058;2023-07-08T12:10:57;29.80;50.90
76613;DHT22;65507;48.454;-2.058;2023-07-08T12:13:24;29.80;51.00
76613;DHT22;65507;48.454;-2.058;2023-07-08T12:15:50;29.70;51.00
76613;DHT22;65507;48.454;-2.058;2023-07-08T12:18:16;29.70;51.20
76613;DHT22;65507;48.454;-2.058;2023-07-08T12:20:45;29.60;51.20
76613;DHT22;65507;48.454;-2.058;2023-07-08T12:23:17;29.60;51.20
76613;DHT22;65507;48.454;-2.058;2023-07-08T12:25:43;29.60;51.30
76613;DHT22;65507;48.454;-2.058;2023-07-08T12:28:09;29.60;51.40
76613;DHT22;65507;48.454;-2.058;2023-07-08T12:30:35;29.60;51.20
76613;DHT22;65507;48.454;-2.058;2023-07-08T12:33:00;29.70;51.10
76613;DHT22;65507;48.454;-2.058;2023-07-08T12:35:28;29.70;51.00
76613;DHT22;65507;48.454;-2.058;2023-07-08T12:37:55;29.70;51.00
76613;DHT22;65507;48.454;-2.058;2023-07-08T12:40:22;29.70;51.00
76613;DHT22;65507;48.454;-2.058;2023-07-08T12:42:48;29.70;51.10
76613;DHT22;65507;48.454;-2.058;2023-07-08T12:45:19;29.60;51.10
76613;DHT22;65507;48.454;-2.058;2023-07-08T12:47:45;29.70;51.00
76613;DHT22;65507;48.454;-2.058;2023-07-08T12:50:11;29.70;51.00
76613;DHT22;65507;48.454;-2.058;2023-07-08T12:52:37;29.60;51.10
76613;DHT22;65507;48.454;-2.058;2023-07-08T12:55:03;29.60;51.20
76613;DHT22;65507;48.454;-2.058;2023-07-08T12:57:29;29.60;51.10
76613;DHT22;65507;48.454;-2.058;2023-07-08T12:59:54;29.60;51.10
76613;DHT22;65507;48.454;-2.058;2023-07-08T13:02:20;29.60;51.00
76613;DHT22;65507;48.454;-2.058;2023-07-08T13:04:47;29.70;50.80
76613;DHT22;65507;48.454;-2.058;2023-07-08T13:09:54;29.70;50.70
76613;DHT22;65507;48.454;-2.058;2023-07-08T13:12:20;29.70;50.70
76613;DHT22;65507;48.454;-2.058;2023-07-08T13:14:50;29.80;50.70
76613;DHT22;65507;48.454;-2.058;2023-07-08T13:17:16;29.80;50.70
76613;DHT22;65507;48.454;-2.058;2023-07-08T13:19:42;29.80;50.60
76613;DHT22;65507;48.454;-2.058;2023-07-08T13:22:18;29.90;50.60
76613;DHT22;65507;48.454;-2.058;2023-07-08T13:24:44;29.90;50.60
76613;DHT22;65507;48.454;-2.058;2023-07-08T13:27:23;29.90;50.60
76613;DHT22;65507;48.454;-2.058;2023-07-08T13:29:52;29.90;50.60
76613;DHT22;65507;48.454;-2.058;2023-07-08T13:32:18;29.90;50.50
76613;DHT22;65507;48.454;-2.058;2023-07-08T13:34:44;30.00;50.50
76613;DHT22;65507;48.454;-2.058;2023-07-08T13:37:10;29.90;50.50
76613;DHT22;65507;48.454;-2.058;2023-07-08T13:39:36;29.80;50.60
76613;DHT22;65507;48.454;-2.058;2023-07-08T13:42:02;29.70;50.80
76613;DHT22;65507;48.454;-2.058;2023-07-08T13:44:28;29.60;50.90
76613;DHT22;65507;48.454;-2.058;2023-07-08T13:46:55;29.40;51.20
76613;DHT22;65507;48.454;-2.058;2023-07-08T13:51:50;28.80;52.20
76613;DHT22;65507;48.454;-2.058;2023-07-08T13:54:24;28.70;52.40
76613;DHT22;65507;48.454;-2.058;2023-07-08T13:56:49;28.70;52.40
76613;DHT22;65507;48.454;-2.058;2023-07-08T13:59:19;28.60;52.40
76613;DHT22;65507;48.454;-2.058;2023-07-08T14:01:46;28.50;52.70
76613;DHT22;65507;48.454;-2.058;2023-07-08T14:04:13;28.40;52.60
76613;DHT22;65507;48.454;-2.058;2023-07-08T14:06:41;28.40;52.60
76613;DHT22;65507;48.454;-2.058;2023-07-08T14:09:14;28.30;52.70
76613;DHT22;65507;48.454;-2.058;2023-07-08T14:11:40;28.20;52.90
76613;DHT22;65507;48.454;-2.058;2023-07-08T14:14:07;28.10;52.80
76613;DHT22;65507;48.454;-2.058;2023-07-08T14:16:33;28.10;52.80
76613;DHT22;65507;48.454;-2.058;2023-07-08T14:19:00;28.00;52.70
76613;DHT22;65507;48.454;-2.058;2023-07-08T14:21:29;28.00;52.70
76613;DHT22;65507;48.454;-2.058;2023-07-08T14:23:55;28.00;52.70
76613;DHT22;65507;48.454;-2.058;2023-07-08T14:26:20;28.10;52.70
76613;DHT22;65507;48.454;-2.058;2023-07-08T14:28:46;28.00;52.70
76613;DHT22;65507;48.454;-2.058;2023-07-08T14:31:12;27.90;52.60
76613;DHT22;65507;48.454;-2.058;2023-07-08T14:33:39;27.90;52.60
76613;DHT22;65507;48.454;-2.058;2023-07-08T14:36:13;27.70;52.90
76613;DHT22;65507;48.454;-2.058;2023-07-08T14:38:40;27.60;53.10
76613;DHT22;65507;48.454;-2.058;2023-07-08T14:41:06;27.40;53.30
76613;DHT22;65507;48.454;-2.058;2023-07-08T14:43:32;27.30;53.30
76613;DHT22;65507;48.454;-2.058;2023-07-08T14:45:59;27.30;53.30
76613;DHT22;65507;48.454;-2.058;2023-07-08T14:48:27;27.20;53.20
76613;DHT22;65507;48.454;-2.058;2023-07-08T14:50:52;27.20;53.10
76613;DHT22;65507;48.454;-2.058;2023-07-08T14:53:18;27.30;53.00
76613;DHT22;65507;48.454;-2.058;2023-07-08T14:55:44;27.40;52.90
76613;DHT22;65507;48.454;-2.058;2023-07-08T14:58:19;27.40;52.60
76613;DHT22;65507;48.454;-2.058;2023-07-08T15:00:45;27.40;52.50
76613;DHT22;65507;48.454;-2.058;2023-07-08T15:03:11;27.50;52.40
76613;DHT22;65507;48.454;-2.058;2023-07-08T15:05:36;27.50;52.40
76613;DHT22;65507;48.454;-2.058;2023-07-08T15:08:02;27.40;52.30
76613;DHT22;65507;48.454;-2.058;2023-07-08T15:10:30;27.40;52.50
76613;DHT22;65507;48.454;-2.058;2023-07-08T15:12:57;27.30;52.60
76613;DHT22;65507;48.454;-2.058;2023-07-08T15:15:27;27.20;52.80
76613;DHT22;65507;48.454;-2.058;2023-07-08T15:17:53;27.10;52.80
76613;DHT22;65507;48.454;-2.058;2023-07-08T15:20:19;27.10;53.00
76613;DHT22;65507;48.454;-2.058;2023-07-08T15:22:45;26.90;53.00
76613;DHT22;65507;48.454;-2.058;2023-07-08T15:25:11;26.90;53.20
76613;DHT22;65507;48.454;-2.058;2023-07-08T15:27:38;26.80;53.20
76613;DHT22;65507;48.454;-2.058;2023-07-08T15:30:04;26.70;53.30
76613;DHT22;65507;48.454;-2.058;2023-07-08T15:32:29;26.60;53.50
76613;DHT22;65507;48.454;-2.058;2023-07-08T15:34:55;26.60;53.70
76613;DHT22;65507;48.454;-2.058;2023-07-08T15:37:20;26.50;53.60
76613;DHT22;65507;48.454;-2.058;2023-07-08T15:39:46;26.40;53.60
76613;DHT22;65507;48.454;-2.058;2023-07-08T15:42:11;26.40;53.70
76613;DHT22;65507;48.454;-2.058;2023-07-08T15:44:38;26.40;53.60
76613;DHT22;65507;48.454;-2.058;2023-07-08T15:47:03;26.40;53.50
76613;DHT22;65507;48.454;-2.058;2023-07-08T15:49:29;26.40;53.40
76613;DHT22;65507;48.454;-2.058;2023-07-08T15:51:55;26.40;53.40
76613;DHT22;65507;48.454;-2.058;2023-07-08T15:54:21;26.40;53.40
76613;DHT22;65507;48.454;-2.058;2023-07-08T15:56:48;26.30;53.40
76613;DHT22;65507;48.454;-2.058;2023-07-08T15:59:15;26.30;53.30
76613;DHT22;65507;48.454;-2.058;2023-07-08T16:01:41;26.30;53.30
76613;DHT22;65507;48.454;-2.058;2023-07-08T16:04:12;26.30;53.10
76613;DHT22;65507;48.454;-2.058;2023-07-08T16:06:40;26.30;53.00